sensor_id;sensor_type;location;lat;lon;timestamp;P1;durP1;ratioP1;P2;durP2;ratioP2
769;SDS011;368;48.698;9.116;2022-08-21T00:01:52;25.00;;;23.20;;
769;SDS011;368;48.698;9.116;2022-08-21T00:04:19;38.50;;;35.83;;
769;SDS011;368;48.698;9.116;2022-08-21T00:06:46;33.23;;;31.07;;
769;SDS011;368;48.698;9.116;2022-08-21T00:09:13;32.83;;;30.37;;
769;SDS011;368;48.698;9.116;2022-08-21T00:11:40;27.23;;;25.40;;
769;SDS011;368;48.698;9.116;2022-08-21T00:14:08;28.50;;;26.30;;
769;SDS011;368;48.698;9.116;2022-08-21T00:16:35;22.90;;;21.27;;
769;SDS011;368;48.698;9.116;2022-08-21T00:19:03;20.27;;;18.37;;
769;SDS011;368;48.698;9.116;2022-08-21T00:21:31;15.67;;;14.37;;
769;SDS011;368;48.698;9.116;2022-08-21T00:23:58;12.17;;;11.17;;
769;SDS011;368;48.698;9.116;2022-08-21T00:26:25;11.13;;;10.23;;
769;SDS011;368;48.698;9.116;2022-08-21T00:28:52;8.13;;;7.37;;
769;SDS011;368;48.698;9.116;2022-08-21T00:31:20;5.67;;;4.37;;
769;SDS011;368;48.698;9.116;2022-08-21T00:33:47;5.93;;;5.43;;
769;SDS011;368;48.698;9.116;2022-08-21T00:36:14;4.53;;;4.13;;
769;SDS011;368;48.698;9.116;2022-08-21T00:38:42;5.90;;;4.17;;
769;SDS011;368;48.698;9.116;2022-08-21T00:41:09;5.17;;;4.53;;
769;SDS011;368;48.698;9.116;2022-08-21T00:43:37;5.93;;;4.60;;
769;SDS011;368;48.698;9.116;2022-08-21T00:46:05;7.60;;;6.80;;
769;SDS011;368;48.698;9.116;2022-08-21T00:48:34;6.37;;;5.77;;
769;SDS011;368;48.698;9.116;2022-08-21T00:51:02;6.63;;;5.90;;
769;SDS011;368;48.698;9.116;2022-08-21T00:53:31;5.03;;;4.63;;
769;SDS011;368;48.698;9.116;2022-08-21T00:56:01;5.23;;;4.73;;
769;SDS011;368;48.698;9.116;2022-08-21T00:58:30;4.73;;;4.37;;
769;SDS011;368;48.698;9.116;2022-08-21T01:01:01;3.93;;;3.60;;
769;SDS011;368;48.698;9.116;2022-08-21T01:03:29;4.20;;;3.80;;
769;SDS011;368;48.698;9.116;2022-08-21T01:05:58;4.40;;;4.00;;
769;SDS011;368;48.698;9.116;2022-08-21T01:08:25;3.83;;;3.53;;
769;SDS011;368;48.698;9.116;2022-08-21T01:10:54;5.57;;;4.07;;
769;SDS011;368;48.698;9.116;2022-08-21T01:13:22;6.60;;;3.80;;
769;SDS011;368;48.698;9.116;2022-08-21T01:15:50;4.43;;;3.43;;
769;SDS011;368;48.698;9.116;2022-08-21T01:18:20;5.37;;;3.43;;
769;SDS011;368;48.698;9.116;2022-08-21T01:20:59;4.47;;;3.43;;
769;SDS011;368;48.698;9.116;2022-08-21T01:23:31;4.43;;;3.40;;
769;SDS011;368;48.698;9.116;2022-08-21T01:25:59;3.63;;;3.33;;
769;SDS011;368;48.698;9.116;2022-08-21T01:28:26;4.30;;;3.53;;
769;SDS011;368;48.698;9.116;2022-08-21T01:30:57;5.53;;;3.20;;
769;SDS011;368;48.698;9.116;2022-08-21T01:33:26;3.30;;;2.97;;
769;SDS011;368;48.698;9.116;2022-08-21T01:35:53;3.83;;;3.53;;
769;SDS011;368;48.698;9.116;2022-08-21T01:38:21;4.13;;;3.20;;
769;SDS011;368;48.698;9.116;2022-08-21T01:40:48;5.97;;;3.40;;
769;SDS011;368;48.698;9.116;2022-08-21T01:43:14;4.23;;;3.50;;
769;SDS011;368;48.698;9.116;2022-08-21T01:45:41;4.10;;;3.47;;
769;SDS011;368;48.698;9.116;2022-08-21T01:48:08;8.30;;;3.70;;
769;SDS011;368;48.698;9.116;2022-08-21T01:50:35;5.23;;;3.53;;
769;SDS011;368;48.698;9.116;2022-08-21T01:53:01;4.20;;;3.13;;
769;SDS011;368;48.698;9.116;2022-08-21T01:55:30;3.73;;;3.23;;
769;SDS011;368;48.698;9.116;2022-08-21T01:57:57;4.17;;;3.37;;
769;SDS011;368;48.698;9.116;2022-08-21T02:00:24;4.40;;;3.10;;
769;SDS011;368;48.698;9.116;2022-08-21T02:02:51;4.00;;;3.57;;
769;SDS011;368;48.698;9.116;2022-08-21T02:05:18;3.90;;;3.00;;
769;SDS011;368;48.698;9.116;2022-08-21T02:07:46;4.33;;;3.30;;
769;SDS011;368;48.698;9.116;2022-08-21T02:10:15;5.77;;;3.70;;
769;SDS011;368;48.698;9.116;2022-08-21T02:12:46;5.07;;;3.90;;
769;SDS011;368;48.698;9.116;2022-08-21T02:15:13;3.30;;;3.00;;
769;SDS011;368;48.698;9.116;2022-08-21T02:17:40;3.90;;;3.00;;
769;SDS011;368;48.698;9.116;2022-08-21T02:20:10;4.77;;;2.80;;
769;SDS011;368;48.698;9.116;2022-08-21T02:22:46;3.70;;;3.00;;
769;SDS011;368;48.698;9.116;2022-08-21T02:25:14;3.40;;;3.10;;
769;SDS011;368;48.698;9.116;2022-08-21T02:27:42;6.27;;;3.30;;
769;SDS011;368;48.698;9.116;2022-08-21T02:30:14;5.30;;;3.33;;
769;SDS011;368;48.698;9.116;2022-08-21T02:32:43;4.03;;;3.40;;
769;SDS011;368;48.698;9.116;2022-08-21T02:35:10;7.27;;;4.07;;
769;SDS011;368;48.698;9.116;2022-08-21T02:37:42;6.50;;;3.50;;
769;SDS011;368;48.698;9.116;2022-08-21T02:40:10;4.67;;;4.00;;
769;SDS011;368;48.698;9.116;2022-08-21T02:42:37;4.43;;;4.00;;
769;SDS011;368;48.698;9.116;2022-08-21T02:45:05;8.10;;;4.03;;
769;SDS011;368;48.698;9.116;2022-08-21T02:47:33;4.00;;;3.10;;
769;SDS011;368;48.698;9.116;2022-08-21T02:50:00;4.20;;;3.80;;
769;SDS011;368;48.698;9.116;2022-08-21T02:52:27;3.30;;;3.00;;
769;SDS011;368;48.698;9.116;2022-08-21T02:54:54;3.70;;;3.20;;
769;SDS011;368;48.698;9.116;2022-08-21T02:57:20;3.97;;;3.57;;
769;SDS011;368;48.698;9.116;2022-08-21T02:59:47;4.47;;;3.17;;
769;SDS011;368;48.698;9.116;2022-08-21T03:02:14;5.67;;;3.43;;
769;SDS011;368;48.698;9.116;2022-08-21T03:04:42;4.20;;;3.13;;
769;SDS011;368;48.698;9.116;2022-08-21T03:07:09;4.33;;;3.93;;
769;SDS011;368;48.698;9.116;2022-08-21T03:09:36;3.53;;;3.23;;
769;SDS011;368;48.698;9.116;2022-08-21T03:12:03;4.60;;;3.60;;
769;SDS011;368;48.698;9.116;2022-08-21T03:14:30;3.63;;;3.33;;
769;SDS011;368;48.698;9.116;2022-08-21T03:16:57;5.13;;;3.10;;
769;SDS011;368;48.698;9.116;2022-08-21T03:19:24;3.90;;;3.47;;
769;SDS011;368;48.698;9.116;2022-08-21T03:21:52;4.43;;;4.03;;
769;SDS011;368;48.698;9.116;2022-08-21T03:24:18;4.30;;;3.60;;
769;SDS011;368;48.698;9.116;2022-08-21T03:26:45;5.23;;;3.30;;
769;SDS011;368;48.698;9.116;2022-08-21T03:29:12;6.03;;;3.63;;
769;SDS011;368;48.698;9.116;2022-08-21T03:31:39;4.47;;;3.00;;
769;SDS011;368;48.698;9.116;2022-08-21T03:34:06;4.40;;;3.50;;
769;SDS011;368;48.698;9.116;2022-08-21T03:36:32;4.07;;;3.50;;
769;SDS011;368;48.698;9.116;2022-08-21T03:39:01;4.80;;;3.70;;
769;SDS011;368;48.698;9.116;2022-08-21T03:41:28;4.10;;;3.40;;
769;SDS011;368;48.698;9.116;2022-08-21T03:43:54;4.03;;;3.73;;
769;SDS011;368;48.698;9.116;2022-08-21T03:46:21;4.17;;;3.70;;
769;SDS011;368;48.698;9.116;2022-08-21T03:48:48;5.07;;;3.90;;
769;SDS011;368;48.698;9.116;2022-08-21T03:51:16;4.20;;;3.80;;
769;SDS011;368;48.698;9.116;2022-08-21T03:53:43;4.13;;;3.83;;
769;SDS011;368;48.698;9.116;2022-08-21T03:56:11;4.40;;;4.00;;
769;SDS011;368;48.698;9.116;2022-08-21T03:58:38;3.50;;;3.20;;
769;SDS011;368;48.698;9.116;2022-08-21T04:01:05;3.67;;;3.37;;
769;SDS011;368;48.698;9.116;2022-08-21T04:03:34;4.37;;;3.97;;
769;SDS011;368;48.698;9.116;2022-08-21T04:06:01;3.67;;;3.37;;
769;SDS011;368;48.698;9.116;2022-08-21T04:08:28;4.53;;;4.10;;
769;SDS011;368;48.698;9.116;2022-08-21T04:10:56;4.73;;;4.10;;
769;SDS011;368;48.698;9.116;2022-08-21T04:13:25;5.33;;;4.83;;
769;SDS011;368;48.698;9.116;2022-08-21T04:15:53;4.17;;;3.33;;
769;SDS011;368;48.698;9.116;2022-08-21T04:18:21;5.33;;;3.83;;
769;SDS011;368;48.698;9.116;2022-08-21T04:20:48;3.93;;;3.30;;
769;SDS011;368;48.698;9.116;2022-08-21T04:23:17;4.70;;;4.20;;
769;SDS011;368;48.698;9.116;2022-08-21T04:25:44;5.10;;;3.60;;
769;SDS011;368;48.698;9.116;2022-08-21T04:28:11;3.87;;;3.57;;
769;SDS011;368;48.698;9.116;2022-08-21T04:30:39;5.77;;;4.50;;
769;SDS011;368;48.698;9.116;2022-08-21T04:33:06;3.10;;;2.90;;
769;SDS011;368;48.698;9.116;2022-08-21T04:35:33;3.70;;;3.40;;
769;SDS011;368;48.698;9.116;2022-08-21T04:38:00;4.43;;;3.70;;
769;SDS011;368;48.698;9.116;2022-08-21T04:40:27;3.40;;;3.10;;
769;SDS011;368;48.698;9.116;2022-08-21T04:42:56;4.53;;;4.13;;
769;SDS011;368;48.698;9.116;2022-08-21T04:45:27;6.30;;;4.30;;
769;SDS011;368;48.698;9.116;2022-08-21T04:47:57;4.00;;;3.47;;
769;SDS011;368;48.698;9.116;2022-08-21T04:50:26;4.77;;;3.60;;
769;SDS011;368;48.698;9.116;2022-08-21T04:52:55;4.30;;;3.90;;
769;SDS011;368;48.698;9.116;2022-08-21T04:55:23;4.67;;;4.27;;
769;SDS011;368;48.698;9.116;2022-08-21T04:57:52;3.83;;;3.43;;
769;SDS011;368;48.698;9.116;2022-08-21T05:00:19;4.10;;;3.50;;
769;SDS011;368;48.698;9.116;2022-08-21T05:02:49;3.67;;;3.37;;
769;SDS011;368;48.698;9.116;2022-08-21T05:05:22;5.00;;;4.27;;
769;SDS011;368;48.698;9.116;2022-08-21T05:07:50;4.83;;;3.73;;
769;SDS011;368;48.698;9.116;2022-08-21T05:10:17;4.80;;;4.40;;
769;SDS011;368;48.698;9.116;2022-08-21T05:12:44;3.97;;;3.60;;
769;SDS011;368;48.698;9.116;2022-08-21T05:15:12;4.40;;;3.67;;
769;SDS011;368;48.698;9.116;2022-08-21T05:17:38;4.13;;;3.83;;
769;SDS011;368;48.698;9.116;2022-08-21T05:20:06;6.03;;;3.60;;
769;SDS011;368;48.698;9.116;2022-08-21T05:22:35;6.23;;;3.80;;
769;SDS011;368;48.698;9.116;2022-08-21T05:25:02;4.50;;;4.00;;
769;SDS011;368;48.698;9.116;2022-08-21T05:27:29;5.33;;;4.17;;
769;SDS011;368;48.698;9.116;2022-08-21T05:29:56;8.47;;;3.73;;
769;SDS011;368;48.698;9.116;2022-08-21T05:32:24;4.70;;;4.00;;
769;SDS011;368;48.698;9.116;2022-08-21T05:34:52;4.03;;;3.63;;
769;SDS011;368;48.698;9.116;2022-08-21T05:37:19;4.10;;;3.70;;
769;SDS011;368;48.698;9.116;2022-08-21T05:39:48;6.27;;;4.07;;
769;SDS011;368;48.698;9.116;2022-08-21T05:42:15;4.90;;;3.30;;
769;SDS011;368;48.698;9.116;2022-08-21T05:44:42;4.00;;;3.70;;
769;SDS011;368;48.698;9.116;2022-08-21T05:47:09;5.87;;;3.67;;
769;SDS011;368;48.698;9.116;2022-08-21T05:49:36;5.50;;;3.73;;
769;SDS011;368;48.698;9.116;2022-08-21T05:52:03;4.53;;;3.27;;
769;SDS011;368;48.698;9.116;2022-08-21T05:54:30;3.27;;;3.00;;
769;SDS011;368;48.698;9.116;2022-08-21T05:56:59;4.10;;;3.63;;
769;SDS011;368;48.698;9.116;2022-08-21T05:59:25;5.30;;;3.13;;
769;SDS011;368;48.698;9.116;2022-08-21T06:01:52;3.70;;;3.40;;
769;SDS011;368;48.698;9.116;2022-08-21T06:04:19;3.60;;;3.30;;
769;SDS011;368;48.698;9.116;2022-08-21T06:06:46;5.97;;;3.87;;
769;SDS011;368;48.698;9.116;2022-08-21T06:09:13;5.27;;;3.70;;
769;SDS011;368;48.698;9.116;2022-08-21T06:11:40;4.40;;;4.00;;
769;SDS011;368;48.698;9.116;2022-08-21T06:14:08;4.77;;;3.13;;
769;SDS011;368;48.698;9.116;2022-08-21T06:16:35;3.93;;;2.90;;
769;SDS011;368;48.698;9.116;2022-08-21T06:19:01;4.50;;;3.47;;
769;SDS011;368;48.698;9.116;2022-08-21T06:21:28;2.80;;;2.60;;
769;SDS011;368;48.698;9.116;2022-08-21T06:23:55;3.33;;;3.03;;
769;SDS011;368;48.698;9.116;2022-08-21T06:26:22;4.87;;;3.40;;
769;SDS011;368;48.698;9.116;2022-08-21T06:28:49;4.20;;;3.30;;
769;SDS011;368;48.698;9.116;2022-08-21T06:31:18;8.53;;;3.47;;
769;SDS011;368;48.698;9.116;2022-08-21T06:33:46;3.23;;;2.93;;
769;SDS011;368;48.698;9.116;2022-08-21T06:36:14;3.13;;;2.87;;
769;SDS011;368;48.698;9.116;2022-08-21T06:38:41;4.30;;;2.77;;
769;SDS011;368;48.698;9.116;2022-08-21T06:41:08;3.40;;;3.10;;
769;SDS011;368;48.698;9.116;2022-08-21T06:43:35;2.73;;;2.53;;
769;SDS011;368;48.698;9.116;2022-08-21T06:46:02;3.87;;;3.17;;
769;SDS011;368;48.698;9.116;2022-08-21T06:48:30;4.47;;;3.20;;
769;SDS011;368;48.698;9.116;2022-08-21T06:50:59;3.77;;;2.40;;
769;SDS011;368;48.698;9.116;2022-08-21T06:53:25;4.47;;;2.90;;
769;SDS011;368;48.698;9.116;2022-08-21T06:55:53;5.20;;;3.10;;
769;SDS011;368;48.698;9.116;2022-08-21T06:58:20;5.07;;;3.60;;
769;SDS011;368;48.698;9.116;2022-08-21T07:00:49;3.53;;;3.23;;
769;SDS011;368;48.698;9.116;2022-08-21T07:03:21;3.30;;;3.00;;
769;SDS011;368;48.698;9.116;2022-08-21T07:05:51;3.40;;;3.10;;
769;SDS011;368;48.698;9.116;2022-08-21T07:08:18;4.23;;;3.23;;
769;SDS011;368;48.698;9.116;2022-08-21T07:10:45;3.50;;;2.90;;
769;SDS011;368;48.698;9.116;2022-08-21T07:13:13;6.63;;;3.23;;
769;SDS011;368;48.698;9.116;2022-08-21T07:15:40;4.20;;;3.80;;
769;SDS011;368;48.698;9.116;2022-08-21T07:18:07;4.20;;;3.17;;
769;SDS011;368;48.698;9.116;2022-08-21T07:20:33;5.40;;;3.47;;
769;SDS011;368;48.698;9.116;2022-08-21T07:23:03;3.67;;;2.43;;
769;SDS011;368;48.698;9.116;2022-08-21T07:25:36;6.03;;;3.27;;
769;SDS011;368;48.698;9.116;2022-08-21T07:28:03;5.77;;;3.53;;
769;SDS011;368;48.698;9.116;2022-08-21T07:30:30;5.13;;;3.20;;
769;SDS011;368;48.698;9.116;2022-08-21T07:32:58;4.93;;;3.57;;
769;SDS011;368;48.698;9.116;2022-08-21T07:35:25;5.00;;;3.57;;
769;SDS011;368;48.698;9.116;2022-08-21T07:37:53;4.80;;;3.10;;
769;SDS011;368;48.698;9.116;2022-08-21T07:40:21;3.70;;;3.03;;
769;SDS011;368;48.698;9.116;2022-08-21T07:42:48;3.70;;;2.80;;
769;SDS011;368;48.698;9.116;2022-08-21T07:45:17;4.73;;;3.97;;
769;SDS011;368;48.698;9.116;2022-08-21T07:47:45;4.43;;;3.27;;
769;SDS011;368;48.698;9.116;2022-08-21T07:50:13;4.80;;;3.70;;
769;SDS011;368;48.698;9.116;2022-08-21T07:52:40;4.33;;;3.73;;
769;SDS011;368;48.698;9.116;2022-08-21T07:55:08;3.60;;;2.97;;
769;SDS011;368;48.698;9.116;2022-08-21T07:57:38;4.03;;;3.33;;
769;SDS011;368;48.698;9.116;2022-08-21T08:00:08;5.30;;;3.60;;
769;SDS011;368;48.698;9.116;2022-08-21T08:02:37;3.30;;;3.00;;
769;SDS011;368;48.698;9.116;2022-08-21T08:05:05;3.23;;;2.93;;
769;SDS011;368;48.698;9.116;2022-08-21T08:07:34;5.10;;;3.50;;
769;SDS011;368;48.698;9.116;2022-08-21T08:10:00;3.90;;;3.50;;
769;SDS011;368;48.698;9.116;2022-08-21T08:12:27;3.70;;;3.30;;
769;SDS011;368;48.698;9.116;2022-08-21T08:14:57;4.63;;;3.47;;
769;SDS011;368;48.698;9.116;2022-08-21T08:17:25;6.00;;;3.40;;
769;SDS011;368;48.698;9.116;2022-08-21T08:19:53;4.70;;;3.03;;
769;SDS011;368;48.698;9.116;2022-08-21T08:22:21;3.57;;;3.23;;
769;SDS011;368;48.698;9.116;2022-08-21T08:24:49;4.23;;;3.20;;
769;SDS011;368;48.698;9.116;2022-08-21T08:27:17;4.40;;;3.20;;
769;SDS011;368;48.698;9.116;2022-08-21T08:29:44;3.60;;;3.17;;
769;SDS011;368;48.698;9.116;2022-08-21T08:32:13;5.43;;;3.20;;
769;SDS011;368;48.698;9.116;2022-08-21T08:34:40;5.47;;;3.00;;
769;SDS011;368;48.698;9.116;2022-08-21T08:37:08;4.17;;;3.30;;
769;SDS011;368;48.698;9.116;2022-08-21T08:39:36;3.30;;;2.80;;
769;SDS011;368;48.698;9.116;2022-08-21T08:42:05;5.87;;;3.57;;
769;SDS011;368;48.698;9.116;2022-08-21T08:44:34;5.93;;;3.80;;
769;SDS011;368;48.698;9.116;2022-08-21T08:47:02;6.20;;;3.40;;
769;SDS011;368;48.698;9.116;2022-08-21T08:49:34;5.37;;;3.40;;
769;SDS011;368;48.698;9.116;2022-08-21T08:52:05;3.63;;;3.33;;
769;SDS011;368;48.698;9.116;2022-08-21T08:54:41;4.40;;;3.23;;
769;SDS011;368;48.698;9.116;2022-08-21T08:57:15;4.60;;;3.00;;
769;SDS011;368;48.698;9.116;2022-08-21T08:59:44;4.60;;;3.27;;
769;SDS011;368;48.698;9.116;2022-08-21T09:02:14;4.30;;;3.60;;
769;SDS011;368;48.698;9.116;2022-08-21T09:04:46;3.90;;;3.30;;
769;SDS011;368;48.698;9.116;2022-08-21T09:07:16;5.00;;;3.57;;
769;SDS011;368;48.698;9.116;2022-08-21T09:09:55;4.73;;;3.17;;
769;SDS011;368;48.698;9.116;2022-08-21T09:12:33;4.20;;;3.80;;
769;SDS011;368;48.698;9.116;2022-08-21T09:15:06;3.70;;;3.23;;
769;SDS011;368;48.698;9.116;2022-08-21T09:17:48;5.93;;;3.10;;
769;SDS011;368;48.698;9.116;2022-08-21T09:20:32;6.27;;;3.60;;
769;SDS011;368;48.698;9.116;2022-08-21T09:23:09;6.03;;;3.30;;
769;SDS011;368;48.698;9.116;2022-08-21T09:25:46;3.80;;;3.23;;
769;SDS011;368;48.698;9.116;2022-08-21T09:28:21;5.07;;;3.60;;
769;SDS011;368;48.698;9.116;2022-08-21T09:30:48;5.43;;;3.40;;
769;SDS011;368;48.698;9.116;2022-08-21T09:33:16;4.10;;;3.13;;
769;SDS011;368;48.698;9.116;2022-08-21T09:35:52;3.63;;;3.00;;
769;SDS011;368;48.698;9.116;2022-08-21T09:38:27;5.10;;;3.17;;
769;SDS011;368;48.698;9.116;2022-08-21T09:40:57;6.20;;;3.13;;
769;SDS011;368;48.698;9.116;2022-08-21T09:43:28;4.43;;;3.13;;
769;SDS011;368;48.698;9.116;2022-08-21T09:46:07;4.80;;;3.13;;
769;SDS011;368;48.698;9.116;2022-08-21T09:48:40;5.67;;;3.53;;
769;SDS011;368;48.698;9.116;2022-08-21T09:51:11;3.93;;;3.07;;
769;SDS011;368;48.698;9.116;2022-08-21T09:53:43;4.20;;;3.37;;
769;SDS011;368;48.698;9.116;2022-08-21T09:56:17;3.40;;;3.03;;
769;SDS011;368;48.698;9.116;2022-08-21T09:59:12;6.63;;;3.33;;
769;SDS011;368;48.698;9.116;2022-08-21T10:01:42;4.00;;;3.57;;
769;SDS011;368;48.698;9.116;2022-08-21T10:04:10;4.03;;;3.50;;
769;SDS011;368;48.698;9.116;2022-08-21T10:06:38;7.27;;;3.60;;
769;SDS011;368;48.698;9.116;2022-08-21T10:09:06;3.70;;;3.33;;
769;SDS011;368;48.698;9.116;2022-08-21T10:11:35;5.20;;;3.93;;
769;SDS011;368;48.698;9.116;2022-08-21T10:14:06;4.97;;;3.33;;
769;SDS011;368;48.698;9.116;2022-08-21T10:16:42;4.93;;;3.67;;
769;SDS011;368;48.698;9.116;2022-08-21T10:19:17;4.93;;;3.30;;
769;SDS011;368;48.698;9.116;2022-08-21T10:21:57;7.40;;;3.93;;
769;SDS011;368;48.698;9.116;2022-08-21T10:24:29;4.87;;;3.60;;
769;SDS011;368;48.698;9.116;2022-08-21T10:27:03;5.87;;;3.67;;
769;SDS011;368;48.698;9.116;2022-08-21T10:29:42;5.27;;;3.30;;
769;SDS011;368;48.698;9.116;2022-08-21T10:32:21;4.53;;;3.53;;
769;SDS011;368;48.698;9.116;2022-08-21T10:34:56;5.23;;;3.77;;
769;SDS011;368;48.698;9.116;2022-08-21T10:37:31;4.20;;;3.20;;
769;SDS011;368;48.698;9.116;2022-08-21T10:40:12;5.40;;;3.60;;
769;SDS011;368;48.698;9.116;2022-08-21T10:42:48;3.53;;;3.13;;
769;SDS011;368;48.698;9.116;2022-08-21T10:45:27;3.97;;;3.17;;
769;SDS011;368;48.698;9.116;2022-08-21T10:48:06;5.53;;;2.90;;
769;SDS011;368;48.698;9.116;2022-08-21T10:50:38;4.73;;;2.97;;
769;SDS011;368;48.698;9.116;2022-08-21T10:53:22;5.40;;;2.93;;
769;SDS011;368;48.698;9.116;2022-08-21T10:56:02;3.70;;;2.90;;
769;SDS011;368;48.698;9.116;2022-08-21T10:58:37;3.50;;;2.40;;
769;SDS011;368;48.698;9.116;2022-08-21T11:01:07;5.20;;;3.67;;
769;SDS011;368;48.698;9.116;2022-08-21T11:03:39;3.83;;;3.40;;
769;SDS011;368;48.698;9.116;2022-08-21T11:06:11;4.07;;;2.80;;
769;SDS011;368;48.698;9.116;2022-08-21T11:08:43;3.83;;;3.10;;
769;SDS011;368;48.698;9.116;2022-08-21T11:11:15;4.20;;;3.50;;
769;SDS011;368;48.698;9.116;2022-08-21T11:13:47;5.70;;;3.00;;
769;SDS011;368;48.698;9.116;2022-08-21T11:16:21;4.70;;;3.43;;
769;SDS011;368;48.698;9.116;2022-08-21T11:18:53;4.43;;;3.30;;
769;SDS011;368;48.698;9.116;2022-08-21T11:21:27;4.70;;;3.27;;
769;SDS011;368;48.698;9.116;2022-08-21T11:24:05;4.83;;;3.60;;
769;SDS011;368;48.698;9.116;2022-08-21T11:26:43;4.30;;;3.57;;
769;SDS011;368;48.698;9.116;2022-08-21T11:29:16;4.60;;;3.47;;
769;SDS011;368;48.698;9.116;2022-08-21T11:31:56;7.13;;;3.87;;
769;SDS011;368;48.698;9.116;2022-08-21T11:34:42;5.60;;;3.40;;
769;SDS011;368;48.698;9.116;2022-08-21T11:37:25;5.37;;;3.93;;
769;SDS011;368;48.698;9.116;2022-08-21T11:40:05;3.43;;;3.17;;
769;SDS011;368;48.698;9.116;2022-08-21T11:42:40;4.47;;;3.33;;
769;SDS011;368;48.698;9.116;2022-08-21T11:45:18;5.37;;;3.60;;
769;SDS011;368;48.698;9.116;2022-08-21T11:47:54;5.30;;;3.43;;
769;SDS011;368;48.698;9.116;2022-08-21T11:50:27;6.13;;;3.90;;
769;SDS011;368;48.698;9.116;2022-08-21T11:52:56;4.63;;;3.73;;
769;SDS011;368;48.698;9.116;2022-08-21T11:55:30;5.60;;;3.47;;
769;SDS011;368;48.698;9.116;2022-08-21T11:58:02;5.40;;;3.40;;
769;SDS011;368;48.698;9.116;2022-08-21T12:00:33;6.93;;;3.90;;
769;SDS011;368;48.698;9.116;2022-08-21T12:03:07;4.40;;;4.00;;
769;SDS011;368;48.698;9.116;2022-08-21T12:05:38;4.30;;;3.70;;
769;SDS011;368;48.698;9.116;2022-08-21T12:08:10;5.50;;;3.70;;
769;SDS011;368;48.698;9.116;2022-08-21T12:10:41;6.70;;;3.83;;
769;SDS011;368;48.698;9.116;2022-08-21T12:13:21;4.97;;;3.50;;
769;SDS011;368;48.698;9.116;2022-08-21T12:15:50;5.13;;;3.83;;
769;SDS011;368;48.698;9.116;2022-08-21T12:18:21;4.83;;;3.57;;
769;SDS011;368;48.698;9.116;2022-08-21T12:21:00;6.23;;;3.33;;
769;SDS011;368;48.698;9.116;2022-08-21T12:23:30;8.40;;;3.97;;
769;SDS011;368;48.698;9.116;2022-08-21T12:26:02;4.10;;;3.50;;
769;SDS011;368;48.698;9.116;2022-08-21T12:28:37;5.47;;;3.63;;
769;SDS011;368;48.698;9.116;2022-08-21T12:31:16;3.87;;;3.47;;
769;SDS011;368;48.698;9.116;2022-08-21T12:33:47;6.10;;;3.60;;
769;SDS011;368;48.698;9.116;2022-08-21T12:36:20;5.13;;;3.90;;
769;SDS011;368;48.698;9.116;2022-08-21T12:38:51;5.23;;;3.43;;
769;SDS011;368;48.698;9.116;2022-08-21T12:41:24;5.80;;;3.60;;
769;SDS011;368;48.698;9.116;2022-08-21T12:43:56;5.40;;;3.60;;
769;SDS011;368;48.698;9.116;2022-08-21T12:46:27;5.60;;;3.10;;
769;SDS011;368;48.698;9.116;2022-08-21T12:49:02;5.63;;;3.77;;
769;SDS011;368;48.698;9.116;2022-08-21T12:51:36;4.20;;;3.10;;
769;SDS011;368;48.698;9.116;2022-08-21T12:54:22;5.17;;;3.20;;
769;SDS011;368;48.698;9.116;2022-08-21T12:56:59;4.40;;;3.37;;
769;SDS011;368;48.698;9.116;2022-08-21T12:59:27;4.87;;;3.23;;
769;SDS011;368;48.698;9.116;2022-08-21T13:01:56;4.63;;;3.67;;
769;SDS011;368;48.698;9.116;2022-08-21T13:04:27;5.50;;;3.20;;
769;SDS011;368;48.698;9.116;2022-08-21T13:07:00;5.53;;;3.30;;
769;SDS011;368;48.698;9.116;2022-08-21T13:09:35;3.80;;;3.00;;
769;SDS011;368;48.698;9.116;2022-08-21T13:12:09;3.33;;;3.00;;
769;SDS011;368;48.698;9.116;2022-08-21T13:14:37;4.47;;;3.53;;
769;SDS011;368;48.698;9.116;2022-08-21T13:17:05;4.53;;;3.60;;
769;SDS011;368;48.698;9.116;2022-08-21T13:19:33;5.87;;;5.27;;
769;SDS011;368;48.698;9.116;2022-08-21T13:22:00;4.17;;;3.50;;
769;SDS011;368;48.698;9.116;2022-08-21T13:24:29;4.27;;;3.80;;
769;SDS011;368;48.698;9.116;2022-08-21T13:26:59;3.60;;;3.30;;
769;SDS011;368;48.698;9.116;2022-08-21T13:29:29;5.03;;;3.47;;
769;SDS011;368;48.698;9.116;2022-08-21T13:32:02;6.63;;;3.87;;
769;SDS011;368;48.698;9.116;2022-08-21T13:34:33;3.83;;;3.43;;
769;SDS011;368;48.698;9.116;2022-08-21T13:37:02;4.47;;;4.07;;
769;SDS011;368;48.698;9.116;2022-08-21T13:39:32;4.80;;;3.83;;
769;SDS011;368;48.698;9.116;2022-08-21T13:42:00;3.50;;;3.20;;
769;SDS011;368;48.698;9.116;2022-08-21T13:44:34;4.70;;;3.60;;
769;SDS011;368;48.698;9.116;2022-08-21T13:47:03;3.80;;;3.50;;
769;SDS011;368;48.698;9.116;2022-08-21T13:49:32;4.50;;;4.10;;
769;SDS011;368;48.698;9.116;2022-08-21T13:52:00;4.13;;;3.10;;
769;SDS011;368;48.698;9.116;2022-08-21T13:54:37;4.00;;;3.10;;
769;SDS011;368;48.698;9.116;2022-08-21T13:57:14;4.50;;;3.80;;
769;SDS011;368;48.698;9.116;2022-08-21T13:59:44;6.57;;;3.77;;
769;SDS011;368;48.698;9.116;2022-08-21T14:02:12;3.50;;;3.13;;
769;SDS011;368;48.698;9.116;2022-08-21T14:04:43;4.07;;;3.27;;
769;SDS011;368;48.698;9.116;2022-08-21T14:07:18;5.83;;;3.20;;
769;SDS011;368;48.698;9.116;2022-08-21T14:09:49;3.93;;;3.13;;
769;SDS011;368;48.698;9.116;2022-08-21T14:12:17;3.73;;;2.90;;
769;SDS011;368;48.698;9.116;2022-08-21T14:14:55;3.70;;;3.30;;
769;SDS011;368;48.698;9.116;2022-08-21T14:17:27;7.90;;;3.13;;
769;SDS011;368;48.698;9.116;2022-08-21T14:19:57;3.87;;;3.57;;
769;SDS011;368;48.698;9.116;2022-08-21T14:22:28;4.53;;;3.13;;
769;SDS011;368;48.698;9.116;2022-08-21T14:25:02;3.30;;;2.97;;
769;SDS011;368;48.698;9.116;2022-08-21T14:27:31;4.77;;;2.93;;
769;SDS011;368;48.698;9.116;2022-08-21T14:30:01;5.00;;;3.20;;
769;SDS011;368;48.698;9.116;2022-08-21T14:32:37;4.03;;;3.00;;
769;SDS011;368;48.698;9.116;2022-08-21T14:35:05;5.77;;;3.77;;
769;SDS011;368;48.698;9.116;2022-08-21T14:37:33;4.40;;;2.83;;
769;SDS011;368;48.698;9.116;2022-08-21T14:40:01;4.87;;;3.20;;
769;SDS011;368;48.698;9.116;2022-08-21T14:42:29;4.43;;;2.80;;
769;SDS011;368;48.698;9.116;2022-08-21T14:44:57;4.30;;;3.87;;
769;SDS011;368;48.698;9.116;2022-08-21T14:47:31;3.33;;;3.00;;
769;SDS011;368;48.698;9.116;2022-08-21T14:49:58;5.70;;;3.10;;
769;SDS011;368;48.698;9.116;2022-08-21T14:52:24;5.43;;;3.83;;
769;SDS011;368;48.698;9.116;2022-08-21T14:54:51;3.87;;;3.47;;
769;SDS011;368;48.698;9.116;2022-08-21T14:57:18;3.30;;;3.00;;
769;SDS011;368;48.698;9.116;2022-08-21T14:59:45;4.13;;;3.27;;
769;SDS011;368;48.698;9.116;2022-08-21T15:02:13;5.83;;;3.40;;
769;SDS011;368;48.698;9.116;2022-08-21T15:04:40;7.50;;;4.07;;
769;SDS011;368;48.698;9.116;2022-08-21T15:07:07;3.73;;;3.33;;
769;SDS011;368;48.698;9.116;2022-08-21T15:09:34;4.00;;;3.40;;
769;SDS011;368;48.698;9.116;2022-08-21T15:12:01;5.07;;;3.87;;
769;SDS011;368;48.698;9.116;2022-08-21T15:14:29;6.07;;;3.17;;
769;SDS011;368;48.698;9.116;2022-08-21T15:16:59;4.90;;;3.90;;
769;SDS011;368;48.698;9.116;2022-08-21T15:19:29;3.60;;;3.30;;
769;SDS011;368;48.698;9.116;2022-08-21T15:21:56;4.03;;;3.10;;
769;SDS011;368;48.698;9.116;2022-08-21T15:24:23;5.57;;;3.60;;
769;SDS011;368;48.698;9.116;2022-08-21T15:26:50;5.70;;;3.80;;
769;SDS011;368;48.698;9.116;2022-08-21T15:29:18;4.10;;;3.60;;
769;SDS011;368;48.698;9.116;2022-08-21T15:31:49;4.23;;;3.40;;
769;SDS011;368;48.698;9.116;2022-08-21T15:34:19;3.80;;;3.40;;
769;SDS011;368;48.698;9.116;2022-08-21T15:36:49;3.97;;;3.67;;
769;SDS011;368;48.698;9.116;2022-08-21T15:39:15;7.27;;;3.47;;
769;SDS011;368;48.698;9.116;2022-08-21T15:41:43;5.00;;;3.87;;
769;SDS011;368;48.698;9.116;2022-08-21T15:44:11;5.00;;;3.83;;
769;SDS011;368;48.698;9.116;2022-08-21T15:46:39;5.97;;;3.97;;
769;SDS011;368;48.698;9.116;2022-08-21T15:49:06;5.00;;;3.77;;
769;SDS011;368;48.698;9.116;2022-08-21T15:51:34;5.50;;;4.30;;
769;SDS011;368;48.698;9.116;2022-08-21T15:54:02;4.97;;;3.90;;
769;SDS011;368;48.698;9.116;2022-08-21T15:56:32;5.00;;;3.83;;
769;SDS011;368;48.698;9.116;2022-08-21T15:59:01;4.93;;;4.03;;
769;SDS011;368;48.698;9.116;2022-08-21T16:01:30;3.87;;;3.50;;